MSC Cordoba — A8OF8 — position and weather

sailwx.info

Track history (hours):
 
Tides and Currents Weather Stations Pressure Air Temp Water Temp Dewpoint Dewpoint Depression Visibility Wind Speed Wind Dir Waves Ship Positions

MSC Cordoba

Last reported at 2017-Jul-23 03:12 UTC. Time now 2017-Jul-27 04:34 UTC.
Position N 40°26' E 026°46'.

Length 274 m; draft 11.1 m.

Type: Ship (hazmat cat A). MMSI: 636091473.

Date/timePositionNaut miles runAvg speedWind from/ knotsBaromVisibWave heightAir tempDewpointWater temp
2017-Jul-23 03:12N 40°26' E 026°46'3612.3
2017-Jul-23 00:15N 40°01' E 026°12'4 8.8
2017-Jul-22 23:47N 39°60' E 026°07'414.0
2017-Jul-22 23:30N 39°59' E 026°02'916.4
2017-Jul-22 22:56N 39°54' E 025°52'14919.0
2017-Jul-22 15:06N 37°40' E 024°29'27118.2
2017-Jul-22 00:14N 36°24' E 019°03'18520.2
2017-Jul-21 15:05N 36°28' E 015°13'220.3
2017-Jul-21 14:59N 36°28' E 015°11'1020.2
2017-Jul-21 14:30N 36°29' E 014°59'1020.7
2017-Jul-21 14:00N 36°29' E 014°46'1020.4
2017-Jul-21 13:30N 36°30' E 014°33'1020.9
2017-Jul-21 13:00N 36°34' E 014°21'1121.3
2017-Jul-21 12:30N 36°37' E 014°09'1121.3
2017-Jul-21 12:00N 36°40' E 013°56'1121.0
2017-Jul-21 11:30N 36°43' E 013°43'1020.8
2017-Jul-21 11:00N 36°46' E 013°31'1020.5
2017-Jul-21 10:30N 36°49' E 013°18'1020.3
2017-Jul-21 10:00N 36°52' E 013°06'1020.2
2017-Jul-21 09:30N 36°55' E 012°54'1020.1
2017-Jul-21 09:00N 36°58' E 012°42'1020.2
2017-Jul-21 08:30N 37°01' E 012°30'1020.2
2017-Jul-21 08:00N 37°04' E 012°18'1020.1
2017-Jul-21 07:30N 37°06' E 012°06'1020.1
2017-Jul-21 07:00N 37°09' E 011°54'1020.3
2017-Jul-21 06:30N 37°13' E 011°42'1020.4
2017-Jul-21 05:59N 37°16' E 011°29'1020.3
2017-Jul-21 05:30N 37°20' E 011°18'1020.1
2017-Jul-21 05:00N 37°24' E 011°07'1020.1
2017-Jul-21 04:30N 37°26' E 010°54'1020.1
2017-Jul-21 04:00N 37°29' E 010°42'1020.3
2017-Jul-21 03:30N 37°31' E 010°30'1020.5
2017-Jul-21 03:00N 37°34' E 010°17'1020.4
2017-Jul-21 02:31N 37°35' E 010°04'1220.7
2017-Jul-21 01:55N 37°35' E 009°49'920.4
2017-Jul-21 01:30N 37°35' E 009°38'1020.5
2017-Jul-21 01:00N 37°35' E 009°25'1020.6
2017-Jul-21 00:30N 37°35' E 009°12'1020.7
2017-Jul-21 00:00N 37°37' E 008°59'2920.6
2017-Jul-20 22:34N 37°35' E 008°22'1020.6
2017-Jul-20 22:06N 37°33' E 008°10'220.8
2017-Jul-20 22:00N 37°33' E 008°08'1120.9
2017-Jul-20 21:30N 37°32' E 007°55'14020.4
2017-Jul-20 14:38N 37°11' E 004°60'1320.7
2017-Jul-20 14:00N 37°10' E 004°44'1120.6
2017-Jul-20 13:29N 37°08' E 004°31'4520.2
2017-Jul-20 11:15N 37°02' E 003°34'6420.5
2017-Jul-20 08:07N 36°52' E 002°15'220.2
2017-Jul-20 08:00N 36°52' E 002°12'1520.3
2017-Jul-20 07:16N 36°50' E 001°54'520.4
2017-Jul-20 07:00N 36°49' E 001°47'1020.6
2017-Jul-20 06:30N 36°47' E 001°34'1220.6
2017-Jul-20 05:55N 36°46' E 001°19'820.3
2017-Jul-20 05:30N 36°45' E 001°09'1020.4
2017-Jul-20 05:01N 36°43' E 000°57'1121.0
2017-Jul-20 04:30N 36°42' E 000°44'1020.9
2017-Jul-20 04:00N 36°40' E 000°31'1020.5
2017-Jul-20 03:30N 36°39' E 000°18'1020.5
2017-Jul-20 03:00N 36°37' E 000°05'1020.4
2017-Jul-20 02:30N 36°37' W 000°07'1020.5
2017-Jul-20 02:00N 36°35' W 000°20'1120.6
2017-Jul-20 01:29N 36°33' W 000°33'1020.5
2017-Jul-20 01:00N 36°31' W 000°45'1020.1
2017-Jul-20 00:30N 36°30' W 000°58'1019.8
2017-Jul-19 23:59N 36°28' W 001°10'919.9
2017-Jul-19 23:31N 36°27' W 001°22'27721.5
2017-Jul-19 10:37N 36°05' W 007°04'422.1
2017-Jul-19 10:27N 36°06' W 007°08'1222.3
2017-Jul-19 09:53N 36°09' W 007°23'1622.7
2017-Jul-19 09:12N 36°12' W 007°42'422.6
2017-Jul-19 09:00N 36°13' W 007°47'1222.6
2017-Jul-19 08:29N 36°17' W 008°01'1222.5
2017-Jul-19 07:58N 36°20' W 008°15'1022.5
2017-Jul-19 07:30N 36°24' W 008°27'1222.5
2017-Jul-19 06:59N 36°27' W 008°41'1122.9
2017-Jul-19 06:30N 36°30' W 008°54'1223.1
2017-Jul-19 06:00N 36°33' W 009°09'1122.1
2017-Jul-19 05:30N 36°38' W 009°21'1122.7
2017-Jul-19 05:00N 36°46' W 009°30'1422.4
2017-Jul-19 04:24N 36°59' W 009°35'1122.5
2017-Jul-19 03:55N 37°10' W 009°39'1022.4
2017-Jul-19 03:27N 37°20' W 009°43'1022.7
2017-Jul-19 03:00N 37°30' W 009°47'1722.8
2017-Jul-19 02:16N 37°46' W 009°52'822.9
2017-Jul-19 01:55N 37°54' W 009°54'1023.4
2017-Jul-19 01:30N 38°03' W 009°57'1122.8
2017-Jul-19 01:00N 38°14' W 010°00'1122.7
2017-Jul-19 00:30N 38°25' W 010°03'1122.5
2017-Jul-19 00:00N 38°36' W 010°05'1122.1
2017-Jul-18 23:31N 38°47' W 010°06'1122.5
2017-Jul-18 23:01N 38°59' W 010°07'1122.2
2017-Jul-18 22:30N 39°10' W 010°06'1122.0
2017-Jul-18 22:00N 39°21' W 010°08'1622.5
2017-Jul-18 21:17N 39°37' W 010°08'1122.4
2017-Jul-18 20:48N 39°48' W 010°08'722.4
2017-Jul-18 20:30N 39°54' W 010°08'1622.4
2017-Jul-18 19:48N 40°10' W 010°07'722.1
2017-Jul-18 19:28N 40°17' W 010°07'1122.5
2017-Jul-18 18:59N 40°28' W 010°07'1622.0
2017-Jul-18 18:15N 40°44' W 010°08'53821.6
2017-Jul-17 17:17N 49°04' W 005°26'518.9
2017-Jul-17 17:00N 49°07' W 005°19'815.4
2017-Jul-17 16:29N 49°11' W 005°08'3720.3
2017-Jul-17 14:40N 49°30' W 004°20'2122.3
2017-Jul-17 13:44N 49°40' W 003°52'521.8
2017-Jul-17 13:30N 49°43' W 003°45'1321.8
2017-Jul-17 12:55N 49°50' W 003°28'821.0
2017-Jul-17 12:31N 49°54' W 003°17'1121.2
2017-Jul-17 12:01N 49°60' W 003°03'1121.2
2017-Jul-17 11:31N 50°03' W 002°48'1221.5
2017-Jul-17 10:58N 50°05' W 002°30'1121.9
2017-Jul-17 10:26N 50°08' W 002°12'1022.5
2017-Jul-17 10:00N 50°10' W 001°57'1223.0
2017-Jul-17 09:30N 50°12' W 001°40'1223.7
2017-Jul-17 09:01N 50°15' W 001°22'1224.4
2017-Jul-17 08:31N 50°17' W 001°03'1224.7
2017-Jul-17 08:00N 50°21' W 000°45'1224.0
2017-Jul-17 07:30N 50°24' W 000°27'1223.6
2017-Jul-17 07:00N 50°27' W 000°09'1223.3
2017-Jul-17 06:30N 50°30' E 000°09'1122.7
2017-Jul-17 06:00N 50°34' E 000°26'1122.0
2017-Jul-17 05:30N 50°39' E 000°42'4219.3
2017-Jul-17 03:19N 51°05' E 001°34'619.8
2017-Jul-17 03:00N 51°10' E 001°41'1020.6
2017-Jul-17 02:30N 51°18' E 001°51'1019.5
2017-Jul-17 02:01N 51°24' E 002°02'1019.7
2017-Jul-17 01:30N 51°21' E 002°17'1020.2
2017-Jul-17 01:01N 51°23' E 002°33'714.4
2017-Jul-17 00:30N 51°23' E 002°44'713.6
2017-Jul-17 00:00N 51°25' E 002°55'816.7
2017-Jul-16 23:31N 51°24' E 003°08'917.2
2017-Jul-16 23:00N 51°24' E 003°22'815.5
2017-Jul-16 22:30N 51°26' E 003°34'611.1
2017-Jul-16 22:00N 51°24' E 003°43'714.0
2017-Jul-16 21:30N 51°21' E 003°52'714.6
2017-Jul-16 21:00N 51°26' E 004°01'612.3
2017-Jul-16 20:31N 51°23' E 004°10'5 9.7
2017-Jul-16 20:01N 51°20' E 004°16'2 4.7
2017-Jul-16 19:30N 51°18' E 004°16'0 0.0
2017-Jul-16 18:59N 51°18' E 004°16'0 0.0
2017-Jul-16 18:29N 51°18' E 004°16'0 0.0
2017-Jul-16 17:59N 51°18' E 004°16'0 0.0
2017-Jul-16 17:26N 51°18' E 004°16'0 0.0
2017-Jul-16 16:58N 51°18' E 004°16'0 0.0
2017-Jul-16 16:25N 51°18' E 004°16'0 0.0
2017-Jul-16 15:58N 51°18' E 004°16'0 0.0
2017-Jul-16 15:28N 51°18' E 004°16'0 0.0
2017-Jul-16 14:58N 51°18' E 004°16'0 0.0
2017-Jul-16 14:30N 51°18' E 004°16'0 0.0
2017-Jul-16 14:00N 51°18' E 004°16'0 0.0
2017-Jul-16 13:30N 51°18' E 004°16'0 0.0
2017-Jul-16 13:00N 51°18' E 004°16'0 0.0
2017-Jul-16 12:30N 51°18' E 004°16'0 0.0
2017-Jul-16 11:59N 51°18' E 004°16'0 0.0
2017-Jul-16 11:29N 51°18' E 004°16'0 0.0
2017-Jul-16 10:59N 51°18' E 004°16'0 0.0
2017-Jul-16 10:29N 51°18' E 004°16'0 0.0
2017-Jul-16 09:58N 51°18' E 004°16'0 0.0
2017-Jul-16 09:28N 51°18' E 004°16'0 0.0
2017-Jul-16 08:58N 51°18' E 004°16'0 0.0
2017-Jul-16 08:28N 51°18' E 004°16'0 0.0
2017-Jul-16 07:58N 51°18' E 004°16'0 0.0
2017-Jul-16 07:30N 51°18' E 004°16'0 0.0
2017-Jul-16 07:00N 51°18' E 004°16'0 0.0
2017-Jul-16 06:30N 51°18' E 004°16'0 0.0
2017-Jul-16 06:00N 51°18' E 004°16'0 0.0
2017-Jul-16 05:29N 51°18' E 004°16'0 0.0
2017-Jul-16 04:59N 51°18' E 004°16'0 0.0
2017-Jul-16 04:23N 51°18' E 004°16'0 0.0
2017-Jul-16 03:59N 51°18' E 004°16'0 0.0
2017-Jul-16 03:29N 51°18' E 004°16'0 0.0
2017-Jul-16 02:58N 51°18' E 004°16'0 0.0
2017-Jul-16 02:28N 51°18' E 004°16'0 0.0
2017-Jul-16 01:55N 51°18' E 004°16'0 0.0
2017-Jul-16 01:28N 51°18' E 004°16'0 0.0
2017-Jul-16 00:58N 51°18' E 004°16'0 0.0
2017-Jul-16 00:30N 51°18' E 004°16'0 0.0
2017-Jul-16 00:00N 51°18' E 004°16'0 0.0
2017-Jul-15 23:30N 51°18' E 004°16'0 0.0
2017-Jul-15 23:00N 51°18' E 004°16'0 0.0
2017-Jul-15 22:29N 51°18' E 004°16'0 0.0
2017-Jul-15 21:59N 51°18' E 004°16'0 0.0
2017-Jul-15 21:29N 51°18' E 004°16'0 0.0
2017-Jul-15 20:59N 51°18' E 004°16'0 0.0
2017-Jul-15 20:26N 51°18' E 004°16'0 0.0
2017-Jul-15 19:58N 51°18' E 004°16'0 0.0
2017-Jul-15 19:28N 51°18' E 004°16'0 0.0
2017-Jul-15 18:58N 51°18' E 004°16'0 0.0
2017-Jul-15 18:28N 51°18' E 004°16'0 0.0
2017-Jul-15 17:57N 51°18' E 004°16'0 0.0
2017-Jul-15 17:30N 51°18' E 004°16'0 0.0
2017-Jul-15 17:00N 51°18' E 004°16'0 0.0
2017-Jul-15 16:27N 51°18' E 004°16'0 0.0
2017-Jul-15 15:57N 51°18' E 004°16'0 0.0
2017-Jul-15 15:29N 51°18' E 004°16'0 0.0
2017-Jul-15 14:59N 51°18' E 004°16'0 0.0
2017-Jul-15 14:00N 51°18' E 004°16'1 1.2
2017-Jul-15 13:30N 51°19' E 004°16'3 6.1
2017-Jul-15 13:00N 51°21' E 004°14'4 8.6
2017-Jul-15 12:30N 51°22' E 004°07'5 9.3
2017-Jul-15 12:00N 51°25' E 004°02'4 8.7
2017-Jul-15 11:30N 51°23' E 003°56'510.1
2017-Jul-15 11:00N 51°21' E 003°49'611.9
2017-Jul-15 10:30N 51°25' E 003°42'510.2
2017-Jul-15 10:00N 51°25' E 003°34'612.7
2017-Jul-15 09:31N 51°25' E 003°24'714.3
2017-Jul-15 09:00N 51°24' E 003°12'815.0
2017-Jul-15 08:30N 51°24' E 003°00'714.5
2017-Jul-15 08:00N 51°22' E 002°49'511.0
2017-Jul-15 07:30N 51°25' E 002°42'3 6.9
2017-Jul-15 07:00N 51°27' E 002°37'0 0.7
2017-Jul-15 06:29N 51°26' E 002°37'0 0.0
2017-Jul-15 05:59N 51°26' E 002°37'0 0.0
2017-Jul-15 05:26N 51°26' E 002°37'0 0.0
2017-Jul-15 04:56N 51°26' E 002°37'0 0.0
2017-Jul-15 04:25N 51°26' E 002°37'0 0.0
2017-Jul-15 03:58N 51°26' E 002°37'0 0.0
2017-Jul-15 03:28N 51°26' E 002°37'0 0.0
2017-Jul-15 02:58N 51°26' E 002°37'0 0.0
2017-Jul-15 02:28N 51°26' E 002°37'0 0.0
2017-Jul-15 02:00N 51°26' E 002°37'0 0.0
2017-Jul-15 01:18N 51°26' E 002°37'0 0.0
2017-Jul-15 01:00N 51°26' E 002°37'0 0.0
2017-Jul-15 00:30N 51°26' E 002°37'0 0.0
2017-Jul-14 23:57N 51°26' E 002°37'0 0.0
2017-Jul-14 23:29N 51°26' E 002°37'0 0.0
2017-Jul-14 22:59N 51°26' E 002°37'0 0.0
2017-Jul-14 22:29N 51°26' E 002°37'0 0.0
2017-Jul-14 21:59N 51°26' E 002°37'0 0.1
2017-Jul-14 21:29N 51°26' E 002°37'0 0.0
2017-Jul-14 20:55N 51°26' E 002°37'0 0.0
2017-Jul-14 20:28N 51°26' E 002°37'0 0.1
2017-Jul-14 19:58N 51°26' E 002°37'0 0.0
2017-Jul-14 19:28N 51°26' E 002°37'0 0.0
2017-Jul-14 19:00N 51°26' E 002°37'0 0.0
2017-Jul-14 18:30N 51°26' E 002°37'0 0.0
2017-Jul-14 18:00N 51°26' E 002°37'0 0.0
2017-Jul-14 17:30N 51°26' E 002°37'0 0.0
2017-Jul-14 17:00N 51°26' E 002°37'0 0.0
2017-Jul-14 16:29N 51°26' E 002°37'0 0.0
2017-Jul-14 15:56N 51°26' E 002°37'0 0.0
2017-Jul-14 15:29N 51°26' E 002°37'0 0.0
2017-Jul-14 14:59N 51°26' E 002°37'0 0.0
2017-Jul-14 14:28N 51°26' E 002°37'0 0.0
2017-Jul-14 13:52N 51°26' E 002°37'0 0.0
2017-Jul-14 13:25N 51°26' E 002°37'0 0.1
2017-Jul-14 12:58N 51°26' E 002°37'0 0.0
2017-Jul-14 12:28N 51°26' E 002°37'0 0.0
2017-Jul-14 12:00N 51°26' E 002°37'0 0.1
2017-Jul-14 11:28N 51°26' E 002°37'1 2.9
2017-Jul-14 11:00N 51°25' E 002°36'612.6
2017-Jul-14 10:30N 51°21' E 002°28'816.1
2017-Jul-14 10:00N 51°19' E 002°16'917.2
2017-Jul-14 09:30N 51°22' E 002°03'918.5
2017-Jul-14 09:00N 51°30' E 001°54'918.6
2017-Jul-14 08:30N 51°38' E 001°47'1117.8
2017-Jul-14 07:52N 51°49' E 001°43'18 1.6
2017-Jul-13 20:38N 51°58' E 001°18'0 0.0
2017-Jul-13 19:58N 51°58' E 001°18'0 0.0
2017-Jul-13 07:50N 51°57' E 001°18'1 3.5
2017-Jul-13 07:29N 51°56' E 001°19'18 8.6
2017-Jul-13 05:27N 51°53' E 001°47'2 3.5
2017-Jul-13 05:00N 51°52' E 001°48'4 7.5
2017-Jul-13 04:30N 51°48' E 001°49'4 7.2
2017-Jul-13 04:00N 51°45' E 001°49'3 7.0
2017-Jul-13 03:30N 51°41' E 001°50'  
Track history (hours):
 
Tides and Currents Weather Stations Pressure Air Temp Water Temp Dewpoint Dewpoint Depression Visibility Wind Speed Wind Dir Waves Ship Positions

MSC Cordoba

Last reported at 2017-Jul-23 03:12 UTC. Time now 2017-Jul-27 04:34 UTC.
Position N 40°26' E 026°46'.

Length 274 m; draft 11.1 m.

Type: Ship (hazmat cat A). MMSI: 636091473.

Date/timePositionNaut miles runAvg speedWind from/ knotsBaromVisibWave heightAir tempDewpointWater temp
2017-Jul-23 03:12N 40°26' E 026°46'3612.3
2017-Jul-23 00:15N 40°01' E 026°12'4 8.8
2017-Jul-22 23:47N 39°60' E 026°07'414.0
2017-Jul-22 23:30N 39°59' E 026°02'916.4
2017-Jul-22 22:56N 39°54' E 025°52'14919.0
2017-Jul-22 15:06N 37°40' E 024°29'27118.2
2017-Jul-22 00:14N 36°24' E 019°03'18520.2
2017-Jul-21 15:05N 36°28' E 015°13'220.3
2017-Jul-21 14:59N 36°28' E 015°11'1020.2
2017-Jul-21 14:30N 36°29' E 014°59'1020.7
2017-Jul-21 14:00N 36°29' E 014°46'1020.4
2017-Jul-21 13:30N 36°30' E 014°33'1020.9
2017-Jul-21 13:00N 36°34' E 014°21'1121.3
2017-Jul-21 12:30N 36°37' E 014°09'1121.3
2017-Jul-21 12:00N 36°40' E 013°56'1121.0
2017-Jul-21 11:30N 36°43' E 013°43'1020.8
2017-Jul-21 11:00N 36°46' E 013°31'1020.5
2017-Jul-21 10:30N 36°49' E 013°18'1020.3
2017-Jul-21 10:00N 36°52' E 013°06'1020.2
2017-Jul-21 09:30N 36°55' E 012°54'1020.1
2017-Jul-21 09:00N 36°58' E 012°42'1020.2
2017-Jul-21 08:30N 37°01' E 012°30'1020.2
2017-Jul-21 08:00N 37°04' E 012°18'1020.1
2017-Jul-21 07:30N 37°06' E 012°06'1020.1
2017-Jul-21 07:00N 37°09' E 011°54'1020.3
2017-Jul-21 06:30N 37°13' E 011°42'1020.4
2017-Jul-21 05:59N 37°16' E 011°29'1020.3
2017-Jul-21 05:30N 37°20' E 011°18'1020.1
2017-Jul-21 05:00N 37°24' E 011°07'1020.1
2017-Jul-21 04:30N 37°26' E 010°54'1020.1
2017-Jul-21 04:00N 37°29' E 010°42'1020.3
2017-Jul-21 03:30N 37°31' E 010°30'1020.5
2017-Jul-21 03:00N 37°34' E 010°17'1020.4
2017-Jul-21 02:31N 37°35' E 010°04'1220.7
2017-Jul-21 01:55N 37°35' E 009°49'920.4
2017-Jul-21 01:30N 37°35' E 009°38'1020.5
2017-Jul-21 01:00N 37°35' E 009°25'1020.6
2017-Jul-21 00:30N 37°35' E 009°12'1020.7
2017-Jul-21 00:00N 37°37' E 008°59'2920.6
2017-Jul-20 22:34N 37°35' E 008°22'1020.6
2017-Jul-20 22:06N 37°33' E 008°10'220.8
2017-Jul-20 22:00N 37°33' E 008°08'1120.9
2017-Jul-20 21:30N 37°32' E 007°55'14020.4
2017-Jul-20 14:38N 37°11' E 004°60'1320.7
2017-Jul-20 14:00N 37°10' E 004°44'1120.6
2017-Jul-20 13:29N 37°08' E 004°31'4520.2
2017-Jul-20 11:15N 37°02' E 003°34'6420.5
2017-Jul-20 08:07N 36°52' E 002°15'220.2
2017-Jul-20 08:00N 36°52' E 002°12'1520.3
2017-Jul-20 07:16N 36°50' E 001°54'520.4
2017-Jul-20 07:00N 36°49' E 001°47'1020.6
2017-Jul-20 06:30N 36°47' E 001°34'1220.6
2017-Jul-20 05:55N 36°46' E 001°19'820.3
2017-Jul-20 05:30N 36°45' E 001°09'1020.4
2017-Jul-20 05:01N 36°43' E 000°57'1121.0
2017-Jul-20 04:30N 36°42' E 000°44'1020.9
2017-Jul-20 04:00N 36°40' E 000°31'1020.5
2017-Jul-20 03:30N 36°39' E 000°18'1020.5
2017-Jul-20 03:00N 36°37' E 000°05'1020.4
2017-Jul-20 02:30N 36°37' W 000°07'1020.5
2017-Jul-20 02:00N 36°35' W 000°20'1120.6
2017-Jul-20 01:29N 36°33' W 000°33'1020.5
2017-Jul-20 01:00N 36°31' W 000°45'1020.1
2017-Jul-20 00:30N 36°30' W 000°58'1019.8
2017-Jul-19 23:59N 36°28' W 001°10'919.9
2017-Jul-19 23:31N 36°27' W 001°22'27721.5
2017-Jul-19 10:37N 36°05' W 007°04'422.1
2017-Jul-19 10:27N 36°06' W 007°08'1222.3
2017-Jul-19 09:53N 36°09' W 007°23'1622.7
2017-Jul-19 09:12N 36°12' W 007°42'422.6
2017-Jul-19 09:00N 36°13' W 007°47'1222.6
2017-Jul-19 08:29N 36°17' W 008°01'1222.5
2017-Jul-19 07:58N 36°20' W 008°15'1022.5
2017-Jul-19 07:30N 36°24' W 008°27'1222.5
2017-Jul-19 06:59N 36°27' W 008°41'1122.9
2017-Jul-19 06:30N 36°30' W 008°54'1223.1
2017-Jul-19 06:00N 36°33' W 009°09'1122.1
2017-Jul-19 05:30N 36°38' W 009°21'1122.7
2017-Jul-19 05:00N 36°46' W 009°30'1422.4
2017-Jul-19 04:24N 36°59' W 009°35'1122.5
2017-Jul-19 03:55N 37°10' W 009°39'1022.4
2017-Jul-19 03:27N 37°20' W 009°43'1022.7
2017-Jul-19 03:00N 37°30' W 009°47'1722.8
2017-Jul-19 02:16N 37°46' W 009°52'822.9
2017-Jul-19 01:55N 37°54' W 009°54'1023.4
2017-Jul-19 01:30N 38°03' W 009°57'1122.8
2017-Jul-19 01:00N 38°14' W 010°00'1122.7
2017-Jul-19 00:30N 38°25' W 010°03'1122.5
2017-Jul-19 00:00N 38°36' W 010°05'1122.1
2017-Jul-18 23:31N 38°47' W 010°06'1122.5
2017-Jul-18 23:01N 38°59' W 010°07'1122.2
2017-Jul-18 22:30N 39°10' W 010°06'1122.0
2017-Jul-18 22:00N 39°21' W 010°08'1622.5
2017-Jul-18 21:17N 39°37' W 010°08'1122.4
2017-Jul-18 20:48N 39°48' W 010°08'722.4
2017-Jul-18 20:30N 39°54' W 010°08'1622.4
2017-Jul-18 19:48N 40°10' W 010°07'722.1
2017-Jul-18 19:28N 40°17' W 010°07'1122.5
2017-Jul-18 18:59N 40°28' W 010°07'1622.0
2017-Jul-18 18:15N 40°44' W 010°08'53821.6
2017-Jul-17 17:17N 49°04' W 005°26'518.9
2017-Jul-17 17:00N 49°07' W 005°19'815.4
2017-Jul-17 16:29N 49°11' W 005°08'3720.3
2017-Jul-17 14:40N 49°30' W 004°20'2122.3
2017-Jul-17 13:44N 49°40' W 003°52'521.8
2017-Jul-17 13:30N 49°43' W 003°45'1321.8
2017-Jul-17 12:55N 49°50' W 003°28'821.0
2017-Jul-17 12:31N 49°54' W 003°17'1121.2
2017-Jul-17 12:01N 49°60' W 003°03'1121.2
2017-Jul-17 11:31N 50°03' W 002°48'1221.5
2017-Jul-17 10:58N 50°05' W 002°30'1121.9
2017-Jul-17 10:26N 50°08' W 002°12'1022.5
2017-Jul-17 10:00N 50°10' W 001°57'1223.0
2017-Jul-17 09:30N 50°12' W 001°40'1223.7
2017-Jul-17 09:01N 50°15' W 001°22'1224.4
2017-Jul-17 08:31N 50°17' W 001°03'1224.7
2017-Jul-17 08:00N 50°21' W 000°45'1224.0
2017-Jul-17 07:30N 50°24' W 000°27'1223.6
2017-Jul-17 07:00N 50°27' W 000°09'1223.3
2017-Jul-17 06:30N 50°30' E 000°09'1122.7
2017-Jul-17 06:00N 50°34' E 000°26'1122.0
2017-Jul-17 05:30N 50°39' E 000°42'4219.3
2017-Jul-17 03:19N 51°05' E 001°34'619.8
2017-Jul-17 03:00N 51°10' E 001°41'1020.6
2017-Jul-17 02:30N 51°18' E 001°51'1019.5
2017-Jul-17 02:01N 51°24' E 002°02'1019.7
2017-Jul-17 01:30N 51°21' E 002°17'1020.2
2017-Jul-17 01:01N 51°23' E 002°33'714.4
2017-Jul-17 00:30N 51°23' E 002°44'713.6
2017-Jul-17 00:00N 51°25' E 002°55'816.7
2017-Jul-16 23:31N 51°24' E 003°08'917.2
2017-Jul-16 23:00N 51°24' E 003°22'815.5
2017-Jul-16 22:30N 51°26' E 003°34'611.1
2017-Jul-16 22:00N 51°24' E 003°43'714.0
2017-Jul-16 21:30N 51°21' E 003°52'714.6
2017-Jul-16 21:00N 51°26' E 004°01'612.3
2017-Jul-16 20:31N 51°23' E 004°10'5 9.7
2017-Jul-16 20:01N 51°20' E 004°16'2 4.7
2017-Jul-16 19:30N 51°18' E 004°16'0 0.0
2017-Jul-16 18:59N 51°18' E 004°16'0 0.0
2017-Jul-16 18:29N 51°18' E 004°16'0 0.0
2017-Jul-16 17:59N 51°18' E 004°16'0 0.0
2017-Jul-16 17:26N 51°18' E 004°16'0 0.0
2017-Jul-16 16:58N 51°18' E 004°16'0 0.0
2017-Jul-16 16:25N 51°18' E 004°16'0 0.0
2017-Jul-16 15:58N 51°18' E 004°16'0 0.0
2017-Jul-16 15:28N 51°18' E 004°16'0 0.0
2017-Jul-16 14:58N 51°18' E 004°16'0 0.0
2017-Jul-16 14:30N 51°18' E 004°16'0 0.0
2017-Jul-16 14:00N 51°18' E 004°16'0 0.0
2017-Jul-16 13:30N 51°18' E 004°16'0 0.0
2017-Jul-16 13:00N 51°18' E 004°16'0 0.0
2017-Jul-16 12:30N 51°18' E 004°16'0 0.0
2017-Jul-16 11:59N 51°18' E 004°16'0 0.0
2017-Jul-16 11:29N 51°18' E 004°16'0 0.0
2017-Jul-16 10:59N 51°18' E 004°16'0 0.0
2017-Jul-16 10:29N 51°18' E 004°16'0 0.0
2017-Jul-16 09:58N 51°18' E 004°16'0 0.0
2017-Jul-16 09:28N 51°18' E 004°16'0 0.0
2017-Jul-16 08:58N 51°18' E 004°16'0 0.0
2017-Jul-16 08:28N 51°18' E 004°16'0 0.0
2017-Jul-16 07:58N 51°18' E 004°16'0 0.0
2017-Jul-16 07:30N 51°18' E 004°16'0 0.0
2017-Jul-16 07:00N 51°18' E 004°16'0 0.0
2017-Jul-16 06:30N 51°18' E 004°16'0 0.0
2017-Jul-16 06:00N 51°18' E 004°16'0 0.0
2017-Jul-16 05:29N 51°18' E 004°16'0 0.0
2017-Jul-16 04:59N 51°18' E 004°16'0 0.0
2017-Jul-16 04:23N 51°18' E 004°16'0 0.0
2017-Jul-16 03:59N 51°18' E 004°16'0 0.0
2017-Jul-16 03:29N 51°18' E 004°16'0 0.0
2017-Jul-16 02:58N 51°18' E 004°16'0 0.0
2017-Jul-16 02:28N 51°18' E 004°16'0 0.0
2017-Jul-16 01:55N 51°18' E 004°16'0 0.0
2017-Jul-16 01:28N 51°18' E 004°16'0 0.0
2017-Jul-16 00:58N 51°18' E 004°16'0 0.0
2017-Jul-16 00:30N 51°18' E 004°16'0 0.0
2017-Jul-16 00:00N 51°18' E 004°16'0 0.0
2017-Jul-15 23:30N 51°18' E 004°16'0 0.0
2017-Jul-15 23:00N 51°18' E 004°16'0 0.0
2017-Jul-15 22:29N 51°18' E 004°16'0 0.0
2017-Jul-15 21:59N 51°18' E 004°16'0 0.0
2017-Jul-15 21:29N 51°18' E 004°16'0 0.0
2017-Jul-15 20:59N 51°18' E 004°16'0 0.0
2017-Jul-15 20:26N 51°18' E 004°16'0 0.0
2017-Jul-15 19:58N 51°18' E 004°16'0 0.0
2017-Jul-15 19:28N 51°18' E 004°16'0 0.0
2017-Jul-15 18:58N 51°18' E 004°16'0 0.0
2017-Jul-15 18:28N 51°18' E 004°16'0 0.0
2017-Jul-15 17:57N 51°18' E 004°16'0 0.0
2017-Jul-15 17:30N 51°18' E 004°16'0 0.0
2017-Jul-15 17:00N 51°18' E 004°16'0 0.0
2017-Jul-15 16:27N 51°18' E 004°16'0 0.0
2017-Jul-15 15:57N 51°18' E 004°16'0 0.0
2017-Jul-15 15:29N 51°18' E 004°16'0 0.0
2017-Jul-15 14:59N 51°18' E 004°16'0 0.0
2017-Jul-15 14:00N 51°18' E 004°16'1 1.2
2017-Jul-15 13:30N 51°19' E 004°16'3 6.1
2017-Jul-15 13:00N 51°21' E 004°14'4 8.6
2017-Jul-15 12:30N 51°22' E 004°07'5 9.3
2017-Jul-15 12:00N 51°25' E 004°02'4 8.7
2017-Jul-15 11:30N 51°23' E 003°56'510.1
2017-Jul-15 11:00N 51°21' E 003°49'611.9
2017-Jul-15 10:30N 51°25' E 003°42'510.2
2017-Jul-15 10:00N 51°25' E 003°34'612.7
2017-Jul-15 09:31N 51°25' E 003°24'714.3
2017-Jul-15 09:00N 51°24' E 003°12'815.0
2017-Jul-15 08:30N 51°24' E 003°00'714.5
2017-Jul-15 08:00N 51°22' E 002°49'511.0
2017-Jul-15 07:30N 51°25' E 002°42'3 6.9
2017-Jul-15 07:00N 51°27' E 002°37'0 0.7
2017-Jul-15 06:29N 51°26' E 002°37'0 0.0
2017-Jul-15 05:59N 51°26' E 002°37'0 0.0
2017-Jul-15 05:26N 51°26' E 002°37'0 0.0
2017-Jul-15 04:56N 51°26' E 002°37'0 0.0
2017-Jul-15 04:25N 51°26' E 002°37'0 0.0
2017-Jul-15 03:58N 51°26' E 002°37'0 0.0
2017-Jul-15 03:28N 51°26' E 002°37'0 0.0
2017-Jul-15 02:58N 51°26' E 002°37'0 0.0
2017-Jul-15 02:28N 51°26' E 002°37'0 0.0
2017-Jul-15 02:00N 51°26' E 002°37'0 0.0
2017-Jul-15 01:18N 51°26' E 002°37'0 0.0
2017-Jul-15 01:00N 51°26' E 002°37'0 0.0
2017-Jul-15 00:30N 51°26' E 002°37'0 0.0
2017-Jul-14 23:57N 51°26' E 002°37'0 0.0
2017-Jul-14 23:29N 51°26' E 002°37'0 0.0
2017-Jul-14 22:59N 51°26' E 002°37'0 0.0
2017-Jul-14 22:29N 51°26' E 002°37'0 0.0
2017-Jul-14 21:59N 51°26' E 002°37'0 0.1
2017-Jul-14 21:29N 51°26' E 002°37'0 0.0
2017-Jul-14 20:55N 51°26' E 002°37'0 0.0
2017-Jul-14 20:28N 51°26' E 002°37'0 0.1
2017-Jul-14 19:58N 51°26' E 002°37'0 0.0
2017-Jul-14 19:28N 51°26' E 002°37'0 0.0
2017-Jul-14 19:00N 51°26' E 002°37'0 0.0
2017-Jul-14 18:30N 51°26' E 002°37'0 0.0
2017-Jul-14 18:00N 51°26' E 002°37'0 0.0
2017-Jul-14 17:30N 51°26' E 002°37'0 0.0
2017-Jul-14 17:00N 51°26' E 002°37'0 0.0
2017-Jul-14 16:29N 51°26' E 002°37'0 0.0
2017-Jul-14 15:56N 51°26' E 002°37'0 0.0
2017-Jul-14 15:29N 51°26' E 002°37'0 0.0
2017-Jul-14 14:59N 51°26' E 002°37'0 0.0
2017-Jul-14 14:28N 51°26' E 002°37'0 0.0
2017-Jul-14 13:52N 51°26' E 002°37'0 0.0
2017-Jul-14 13:25N 51°26' E 002°37'0 0.1
2017-Jul-14 12:58N 51°26' E 002°37'0 0.0
2017-Jul-14 12:28N 51°26' E 002°37'0 0.0
2017-Jul-14 12:00N 51°26' E 002°37'0 0.1
2017-Jul-14 11:28N 51°26' E 002°37'1 2.9
2017-Jul-14 11:00N 51°25' E 002°36'612.6
2017-Jul-14 10:30N 51°21' E 002°28'816.1
2017-Jul-14 10:00N 51°19' E 002°16'917.2
2017-Jul-14 09:30N 51°22' E 002°03'918.5
2017-Jul-14 09:00N 51°30' E 001°54'918.6
2017-Jul-14 08:30N 51°38' E 001°47'1117.8
2017-Jul-14 07:52N 51°49' E 001°43'18 1.6
2017-Jul-13 20:38N 51°58' E 001°18'0 0.0
2017-Jul-13 19:58N 51°58' E 001°18'0 0.0
2017-Jul-13 07:50N 51°57' E 001°18'1 3.5
2017-Jul-13 07:29N 51°56' E 001°19'18 8.6
2017-Jul-13 05:27N 51°53' E 001°47'2 3.5
2017-Jul-13 05:00N 51°52' E 001°48'4 7.5
2017-Jul-13 04:30N 51°48' E 001°49'4 7.2
2017-Jul-13 04:00N 51°45' E 001°49'3 7.0
2017-Jul-13 03:30N 51°41' E 001°50'  

Dump ship's entire track history